地図

経路データ

SID SEASON NUMBER BASIN SUBBASIN NAME ISO_TIME NATURE LAT LON WMO_WIND WMO_PRES WMO_AGENCY TRACK_TYPE DIST2LAND LANDFALL IFLAG USA_AGENCY USA_ATCF_ID USA_LAT USA_LON USA_RECORD USA_STATUS USA_WIND USA_PRES USA_SSHS USA_R34_NE USA_R34_SE USA_R34_SW USA_R34_NW USA_R50_NE USA_R50_SE USA_R50_SW USA_R50_NW USA_R64_NE USA_R64_SE USA_R64_SW USA_R64_NW USA_POCI USA_ROCI USA_RMW USA_EYE TOKYO_LAT TOKYO_LON TOKYO_GRADE TOKYO_WIND TOKYO_PRES TOKYO_R50_DIR TOKYO_R50_LONG TOKYO_R50_SHORT TOKYO_R30_DIR TOKYO_R30_LONG TOKYO_R30_SHORT TOKYO_LAND CMA_LAT CMA_LON CMA_CAT CMA_WIND CMA_PRES HKO_LAT HKO_LON HKO_CAT HKO_WIND HKO_PRES NEWDELHI_LAT NEWDELHI_LON NEWDELHI_GRADE NEWDELHI_WIND NEWDELHI_PRES NEWDELHI_CI NEWDELHI_DP NEWDELHI_POCI REUNION_LAT REUNION_LON REUNION_TYPE REUNION_WIND REUNION_PRES REUNION_TNUM REUNION_CI REUNION_RMW REUNION_R34_NE REUNION_R34_SE REUNION_R34_SW REUNION_R34_NW REUNION_R50_NE REUNION_R50_SE REUNION_R50_SW REUNION_R50_NW REUNION_R64_NE REUNION_R64_SE REUNION_R64_SW REUNION_R64_NW BOM_LAT BOM_LON BOM_TYPE BOM_WIND BOM_PRES BOM_TNUM BOM_CI BOM_RMW BOM_R34_NE BOM_R34_SE BOM_R34_SW BOM_R34_NW BOM_R50_NE BOM_R50_SE BOM_R50_SW BOM_R50_NW BOM_R64_NE BOM_R64_SE BOM_R64_SW BOM_R64_NW BOM_ROCI BOM_POCI BOM_EYE BOM_POS_METHOD BOM_PRES_METHOD NADI_LAT NADI_LON NADI_CAT NADI_WIND NADI_PRES WELLINGTON_LAT WELLINGTON_LON WELLINGTON_WIND WELLINGTON_PRES DS824_LAT DS824_LON DS824_STAGE DS824_WIND DS824_PRES TD9636_LAT TD9636_LON TD9636_STAGE TD9636_WIND TD9636_PRES TD9635_LAT TD9635_LON TD9635_WIND TD9635_PRES TD9635_ROCI NEUMANN_LAT NEUMANN_LON NEUMANN_CLASS NEUMANN_WIND NEUMANN_PRES MLC_LAT MLC_LON MLC_CLASS MLC_WIND MLC_PRES USA_GUST BOM_GUST BOM_GUST_PER REUNION_GUST REUNION_GUST_PER USA_SEAHGT USA_SEARAD_NE USA_SEARAD_SE USA_SEARAD_SW USA_SEARAD_NW STORM_SPEED STORM_DIR
1976299N17244 1976 129 EP MM NAOMI 1976-10-25 06:00:00 NR 16.8000 -115.600 main 898 892 __________O___ -1 16.8000 -115.600 1 30 2 90
1976299N17244 1976 129 EP MM NAOMI 1976-10-25 09:00:00 NR 16.8000 -115.518 main 892 892 __________P___ -1 16.8000 -115.518 1 30 1 90
1976299N17244 1976 129 EP MM NAOMI 1976-10-25 12:00:00 TS 16.8000 -115.500 30 hurdat_epa main 892 892 O________OO___ hurdat_epa EP141976 16.8000 -115.500 TD 30 -1 16.8000 -115.500 TC 30 16.8000 -115.500 1 30 1 263
1976299N17244 1976 129 EP MM NAOMI 1976-10-25 15:00:00 TS 16.7878 -115.631 main 898 898 P________PP___ EP141976 16.7800 -115.653 TD 32 -1 16.7800 -115.653 TC 32 16.8032 -115.587 1 31 3 271
1976299N17244 1976 129 EP MM NAOMI 1976-10-25 18:00:00 TS 16.8063 -115.785 35 hurdat_epa main 912 911 O________OP___ hurdat_epa EP141976 16.8000 -115.800 TS 35 0 16.8000 -115.800 TC 35 16.8252 -115.740 1 32 3 289
1976299N17244 1976 129 EP MM NAOMI 1976-10-25 21:00:00 TS 16.8849 -115.923 main 911 910 P________PP___ EP141976 16.8850 -115.930 TS 35 0 16.8850 -115.930 TC 35 16.8845 -115.897 1 33 3 313
1976299N17244 1976 129 EP MM NAOMI 1976-10-26 00:00:00 TS 17.0000 -116.000 35 hurdat_epa main 910 901 O________OO___ hurdat_epa EP141976 17.0000 -116.000 TS 35 0 17.0000 -116.000 TC 35 17.0000 -116.000 2 35 3 352
1976299N17244 1976 129 EP MM NAOMI 1976-10-26 03:00:00 TS 17.1326 -115.973 main 901 878 P________PP___ EP141976 17.1075 -115.973 TS 35 0 17.1075 -115.973 TC 35 17.2331 -115.973 2 35 3 20
1976299N17244 1976 129 EP MM NAOMI 1976-10-26 06:00:00 TS 17.2630 -115.897 35 hurdat_epa main 878 878 O________OP___ hurdat_epa EP141976 17.2000 -115.900 TS 35 0 17.2000 -115.900 TC 35 17.5150 -115.883 2 35 2 29
1976299N17244 1976 129 EP MM NAOMI 1976-10-26 09:00:00 TS 17.3458 -115.848 main 870 862 P________PP___ EP141976 17.2350 -115.872 TS 35 0 17.2350 -115.872 TC 35 17.7894 -115.751 2 35 2 37
1976299N17244 1976 129 EP MM NAOMI 1976-10-26 12:00:00 TS 17.4400 -115.760 35 hurdat_epa main 862 831 O________OO___ hurdat_epa EP141976 17.3000 -115.800 TS 35 0 17.3000 -115.800 TC 35 18.0000 -115.600 2 35 4 44
1976299N17244 1976 129 EP MM NAOMI 1976-10-26 15:00:00 TS 17.6008 -115.591 main 831 801 P________PP___ EP141976 17.4850 -115.623 TS 35 0 17.4850 -115.623 TC 35 18.0638 -115.464 2 35 5 47
1976299N17244 1976 129 EP MM NAOMI 1976-10-26 18:00:00 TS 17.7720 -115.383 35 hurdat_epa main 801 778 O________OP___ hurdat_epa EP141976 17.7000 -115.400 TS 35 0 17.7000 -115.400 TC 35 18.0600 -115.315 2 35 5 52
1976299N17244 1976 129 EP MM NAOMI 1976-10-26 21:00:00 TS 17.8972 -115.192 main 778 755 P________PP___ EP141976 17.8650 -115.200 TS 35 0 17.8650 -115.200 TC 35 18.0263 -115.158 2 35 4 58
1976299N17244 1976 129 EP MM NAOMI 1976-10-27 00:00:00 TS 18.0000 -115.000 35 hurdat_epa main 755 733 O________OO___ hurdat_epa EP141976 18.0000 -115.000 TS 35 0 18.0000 -115.000 TC 35 18.0000 -115.000 2 35 4 62
1976299N17244 1976 129 EP MM NAOMI 1976-10-27 03:00:00 TS 18.0891 -114.805 main 733 710 P________PP___ EP141976 18.1075 -114.792 TS 37 0 18.1075 -114.792 TC 37 18.0153 -114.854 2 36 4 65
1976299N17244 1976 129 EP MM NAOMI 1976-10-27 06:00:00 TS 18.1695 -114.621 40 hurdat_epa main 710 695 O________OP___ hurdat_epa EP141976 18.2000 -114.600 TS 40 0 18.2000 -114.600 TC 40 18.0474 -114.707 2 37 4 62
1976299N17244 1976 129 EP MM NAOMI 1976-10-27 09:00:00 TS 18.2612 -114.465 main 695 673 P________PP___ EP141976 18.3000 -114.442 TS 40 0 18.3000 -114.442 TC 40 18.1059 -114.557 2 38 3 56
1976299N17244 1976 129 EP MM NAOMI 1976-10-27 12:00:00 TS 18.3600 -114.320 40 hurdat_epa main 673 657 O________OO___ hurdat_epa EP141976 18.4000 -114.300 TS 40 0 18.4000 -114.300 TC 40 18.2000 -114.400 2 40 3 55
1976299N17244 1976 129 EP MM NAOMI 1976-10-27 15:00:00 TS 18.4560 -114.174 main 657 635 P________PP___ EP141976 18.4925 -114.150 TS 42 0 18.4925 -114.150 TC 42 18.3103 -114.272 2 38 4 53
1976299N17244 1976 129 EP MM NAOMI 1976-10-27 18:00:00 TS 18.5719 -114.026 45 hurdat_epa main 635 620 O________OP___ hurdat_epa EP141976 18.6000 -114.000 TS 45 0 18.6000 -114.000 TC 45 18.4594 -114.131 2 37 4 47
1976299N17244 1976 129 EP MM NAOMI 1976-10-27 21:00:00 TS 18.7006 -113.900 main 620 589 P________PP___ EP141976 18.7123 -113.887 TS 42 0 18.7123 -113.887 TC 42 18.6538 -113.950 2 36 5 43
1976299N17244 1976 129 EP MM NAOMI 1976-10-28 00:00:00 TS 18.9000 -113.700 40 hurdat_epa main 589 543 O________OO___ hurdat_epa EP141976 18.9000 -113.700 TS 40 0 18.9000 -113.700 TC 40 18.9000 -113.700 2 35 7 45
1976299N17244 1976 129 EP MM NAOMI 1976-10-28 03:00:00 TS 19.2176 -113.348 main 536 475 P________PP___ EP141976 19.2201 -113.345 TS 40 0 19.2201 -113.345 TC 40 19.2079 -113.360 2 36 10 47
1976299N17244 1976 129 EP MM NAOMI 1976-10-28 06:00:00 TS 19.5925 -112.910 40 hurdat_epa main 475 423 O________OP___ hurdat_epa EP141976 19.6000 -112.900 TS 40 0 19.6000 -112.900 TC 40 19.5626 -112.948 2 37 11 49
1976299N17244 1976 129 EP MM NAOMI 1976-10-28 09:00:00 TS 19.9471 -112.469 main 423 356 P________PP___ EP141976 19.9499 -112.465 TS 40 0 19.9499 -112.465 TC 40 19.9359 -112.487 2 38 11 50
1976299N17244 1976 129 EP MM NAOMI 1976-10-28 12:00:00 TS 20.3000 -112.000 40 hurdat_epa main 356 300 O________OO___ hurdat_epa EP141976 20.3000 -112.000 TS 40 0 20.3000 -112.000 TC 40 20.3000 -112.000 2 40 11 52
1976299N17244 1976 129 EP MM NAOMI 1976-10-28 15:00:00 TS 20.6537 -111.520 main 290 236 P________PP___ EP141976 20.6649 -111.507 TS 40 0 20.6649 -111.507 TC 40 20.6090 -111.569 2 40 11 53
1976299N17244 1976 129 EP MM NAOMI 1976-10-28 18:00:00 TS 20.9811 -111.022 40 1005 hurdat_epa main 236 199 O________OP___ hurdat_epa EP141976 21.0000 -111.000 TS 40 1005 0 21.0000 -111.000 TC 40 1005 20.9054 -111.110 2 40 11 57
1976299N17244 1976 129 EP MM NAOMI 1976-10-28 21:00:00 TS 21.2453 -110.555 main 199 156 P________PP___ EP141976 21.2569 -110.544 TS 40 0 21.2569 -110.544 TC 40 21.1992 -110.597 2 40 11 61
1976299N17244 1976 129 EP MM NAOMI 1976-10-29 00:00:00 TS 21.5000 -110.000 40 hurdat_epa main 156 133 O________OO___ hurdat_epa EP141976 21.5000 -110.000 TS 40 0 21.5000 -110.000 TC 40 21.5000 -110.000 2 40 13 66
1976299N17244 1976 129 EP MM NAOMI 1976-10-29 03:00:00 TS 21.7911 -109.256 main 133 132 P________PP___ EP141976 21.7852 -109.245 TS 40 0 21.7852 -109.245 TC 40 21.8147 -109.301 2 38 16 68
1976299N17244 1976 129 EP MM NAOMI 1976-10-29 06:00:00 TS 22.1063 -108.418 40 hurdat_epa main 166 152 O________OP___ hurdat_epa EP141976 22.1000 -108.400 TS 40 0 22.1000 -108.400 TC 40 22.1399 -108.517 2 37 17 67
1976299N17244 1976 129 EP MM NAOMI 1976-10-29 09:00:00 TS 22.4525 -107.555 main 145 60 P________PP___ EP141976 22.4503 -107.540 TS 37 0 22.4503 -107.540 TC 37 22.4701 -107.674 2 36 17 65
1976299N17244 1976 129 EP MM NAOMI 1976-10-29 12:00:00 TS 22.8000 -106.800 35 hurdat_epa main 60 10 O________OO___ hurdat_epa EP141976 22.8000 -106.800 TS 35 0 22.8000 -106.800 TC 35 22.8000 -106.800 2 35 13 60
1976299N17244 1976 129 EP MM NAOMI 1976-10-29 15:00:00 TS 23.1068 -106.339 main 0 0 P________P____ EP141976 23.1068 -106.339 TS 30 -1 23.1068 -106.339 TC 30 2 10 51
1976299N17244 1976 129 EP MM NAOMI 1976-10-29 18:00:00 ET 23.4000 -106.000 25 hurdat_epa main 0 0 O________O____ hurdat_epa EP141976 23.4000 -106.000 ET 25 -4 23.4000 -106.000 25 2 9 49
1976299N17244 1976 129 EP MM NAOMI 1976-10-29 21:00:00 ET 23.6773 -105.614 main 0 0 P________P____ EP141976 23.6773 -105.614 ET 25 -4 23.6773 -105.614 25 2 9 51
1976299N17244 1976 129 EP MM NAOMI 1976-10-30 00:00:00 ET 24.0000 -105.200 25 hurdat_epa main 0 0 O________O____ hurdat_epa EP141976 24.0000 -105.200 ET 25 -4 24.0000 -105.200 25 11 48
1976299N17244 1976 129 EP MM NAOMI 1976-10-30 03:00:00 ET 24.4125 -104.715 main 0 0 P________P____ EP141976 24.4125 -104.715 ET 25 -4 24.4125 -104.715 25 13 45
1976299N17244 1976 129 EP MM NAOMI 1976-10-30 06:00:00 ET 24.9000 -104.200 25 hurdat_epa main 0 0 O________O____ hurdat_epa EP141976 24.9000 -104.200 ET 25 -4 24.9000 -104.200 25 14 42
1976299N17244 1976 129 EP MM NAOMI 1976-10-30 09:00:00 ET 25.4377 -103.696 main 0 0 P________P____ EP141976 25.4377 -103.696 ET 25 -4 25.4377 -103.696 25 14 39
1976299N17244 1976 129 EP MM NAOMI 1976-10-30 12:00:00 ET 26.0000 -103.200 25 hurdat_epa main 0 O________O____ hurdat_epa EP141976 26.0000 -103.200 ET 25 -4 26.0000 -103.200 25 14 38

IBTrACS Databaseについて

本データベースは、米国NOAAが公開する1842年以降の世界の熱帯低気圧のベストトラックデータアーカイブInternational Best Track Archive for Climate Stewardship (IBTrACS)を、ウェブで閲覧しやすい形式に変換したものです。

最終更新日:2021-12-08